オウル の空港の天気 - METARとTAF

オウル空港 ( EFOU / OUL ) - フィンランド Oulunsalo
飛行場実況気象(Metar)
観測時間03/29 00:20 EEST (03/28 21:20 UTC)
風向・風速北北西 5m/s
視程10km以上
天気現象
なし
気温-4℃
湿度50%
気圧1010hPa
METAREFOU 282120Z AUTO 33010KT CAVOK M04/M13 Q1010 R12/39//95
過去の天気等 Google飛行場航空写真 Wunderground天気予報

過去48時間のMETAR

飛行場予報(TAF)
発表時間: 3/28 23:36 EEST (3/28 20:36 UTC)
予報対象時間: 29日0時 EEST ~ 30日0時 EEST
風向・風速北西 4m/s
視程10km以上
なし
TAF EFOU 282036Z 2821/2921 31007KT CAVOK